Time;durP1;ratioP1;P1;durP2;ratioP2;P2;SDS_P1;SDS_P2;PMS_P1;PMS_P2;Temp;Humidity;BMP_temperature;BMP_pressure;BME280_temperature;BME280_humidity;BME280_pressure;Samples;Min_cycle;Max_cycle;Signal;HPM_P1;HPM_P2
2021/10/29 00:01:38;;;;;;;29.27;24.93;;;5.40;99.90;;;6.12;94.22;97865.34;5200992;28;20580;-61
2021/10/29 00:04:12;;;;;;;29.23;23.83;;;5.40;99.90;;;6.09;93.62;97858.44;5201153;28;20597;-60
2021/10/29 00:06:45;;;;;;;28.23;22.83;;;5.40;99.90;;;6.04;94.07;97854.66;5201446;28;20633;-61
2021/10/29 00:09:18;;;;;;;27.40;22.97;;;5.30;99.90;;;6.00;94.43;97850.09;5202582;28;20202;-61
2021/10/29 00:11:51;;;;;;;28.10;23.33;;;5.30;99.90;;;6.01;93.68;97850.97;5204701;28;20202;-61
2021/10/29 00:14:25;;;;;;;26.50;21.73;;;5.30;99.90;;;5.96;93.54;97850.66;5203161;28;20228;-61
2021/10/29 00:17:00;;;;;;;28.23;22.77;;;5.30;99.90;;;5.93;94.33;97849.53;5204564;28;20221;-60
2021/10/29 00:19:33;;;;;;;29.00;23.73;;;5.20;99.90;;;5.95;94.12;97848.00;5204281;28;20618;-60
2021/10/29 00:22:06;;;;;;;28.07;22.07;;;5.20;99.90;;;5.99;93.44;97847.47;5199288;28;20205;-61
2021/10/29 00:24:39;;;;;;;31.20;24.90;;;5.20;99.90;;;5.92;93.58;97845.19;5203679;28;20712;-61
2021/10/29 00:27:13;;;;;;;26.67;23.60;;;5.20;99.90;;;5.94;94.06;97842.03;5203578;28;20305;-61
2021/10/29 00:29:46;;;;;;;33.60;25.97;;;5.20;99.90;;;5.92;94.95;97845.19;5204633;28;20635;-61
2021/10/29 00:32:20;;;;;;;32.40;25.67;;;5.30;99.90;;;5.81;95.18;97845.31;5198249;28;20194;-61
2021/10/29 00:34:53;;;;;;;30.83;24.37;;;5.10;99.90;;;5.81;95.19;97844.44;5203389;28;20647;-61
2021/10/29 00:37:26;;;;;;;34.07;25.33;;;5.10;99.90;;;5.82;95.15;97843.66;5200757;28;21780;-61
2021/10/29 00:39:59;;;;;;;27.73;23.20;;;5.20;99.90;;;5.87;94.47;97845.75;5201019;28;20756;-61
2021/10/29 00:42:32;;;;;;;31.67;24.87;;;5.20;99.90;;;5.85;94.78;97844.75;5202915;28;20696;-61
2021/10/29 00:45:07;;;;;;;30.67;24.63;;;5.20;99.90;;;5.81;94.75;97845.31;5204169;28;20194;-60
2021/10/29 00:47:41;;;;;;;33.03;25.10;;;5.10;99.90;;;5.85;94.59;97846.41;5203750;28;20224;-61
2021/10/29 00:50:15;;;;;;;32.30;25.03;;;5.10;99.90;;;5.80;94.86;97837.56;5203333;28;20580;-61
2021/10/29 00:52:48;;;;;;;29.10;24.90;;;5.10;99.90;;;5.80;94.65;97830.84;5200237;28;20228;-61
2021/10/29 00:55:22;;;;;;;27.57;23.37;;;5.10;99.90;;;5.83;94.32;97826.00;5203316;28;20775;-61
2021/10/29 00:57:55;;;;;;;29.63;24.83;;;5.10;99.90;;;5.86;93.78;97823.69;5198312;28;20592;-61
2021/10/29 01:00:28;;;;;;;28.77;22.93;;;5.10;99.90;;;5.80;93.88;97823.22;5201157;28;20202;-60
2021/10/29 01:03:03;;;;;;;28.43;23.67;;;5.10;99.90;;;5.74;94.35;97817.69;5204386;28;20343;-59
2021/10/29 01:05:37;;;;;;;29.57;24.23;;;5.00;99.90;;;5.76;94.44;97821.25;5203216;28;20200;-59
2021/10/29 01:08:10;;;;;;;29.87;24.13;;;5.00;99.90;;;5.73;94.91;97815.94;5202571;28;20243;-61
2021/10/29 01:10:44;;;;;;;30.50;23.47;;;5.00;99.90;;;5.67;94.94;97817.16;5201420;28;20212;-61
2021/10/29 01:13:17;;;;;;;29.87;25.07;;;4.90;99.90;;;5.68;94.57;97812.19;5203162;28;20636;-61
2021/10/29 01:15:50;;;;;;;27.57;22.50;;;5.00;99.90;;;5.67;94.68;97815.50;5195483;28;20602;-61
2021/10/29 01:18:25;;;;;;;28.67;23.80;;;4.90;99.90;;;5.59;94.47;97809.84;5199986;28;20221;-61
2021/10/29 01:21:02;;;;;;;29.87;23.83;;;4.90;99.90;;;5.64;94.43;97815.25;5199734;28;20198;-61
2021/10/29 01:23:37;;;;;;;27.90;23.20;;;4.90;99.90;;;5.60;94.46;97808.19;5199225;28;20299;-60
2021/10/29 01:26:12;;;;;;;28.90;23.30;;;4.90;99.90;;;5.56;94.83;97801.13;5203904;28;20200;-61
2021/10/29 01:28:47;;;;;;;26.40;21.73;;;4.80;99.90;;;5.58;94.55;97804.63;5200624;28;20598;-61
2021/10/29 01:31:20;;;;;;;27.20;21.93;;;4.90;99.90;;;5.59;94.80;97793.75;5203763;28;20574;-60
2021/10/29 01:33:53;;;;;;;27.47;22.57;;;4.90;99.90;;;5.60;94.86;97795.50;5200430;28;20213;-60
2021/10/29 01:36:27;;;;;;;26.70;23.17;;;4.90;99.90;;;5.56;95.04;97798.59;5198509;28;20222;-60
2021/10/29 01:39:00;;;;;;;26.63;23.30;;;4.90;99.90;;;5.58;94.34;97799.56;5198463;28;20292;-61
2021/10/29 01:41:34;;;;;;;26.57;22.53;;;4.80;99.90;;;5.55;94.01;97799.34;5203119;28;20201;-61
2021/10/29 01:44:07;;;;;;;27.63;22.33;;;4.80;99.90;;;5.52;93.85;97806.72;5201040;28;20194;-61
2021/10/29 01:46:40;;;;;;;26.43;22.27;;;4.80;99.90;;;5.47;93.89;97806.38;5202757;28;20214;-60
2021/10/29 01:49:14;;;;;;;26.10;21.83;;;4.70;99.90;;;5.43;93.76;97805.25;5201923;28;20210;-61
2021/10/29 01:51:49;;;;;;;27.23;22.07;;;4.70;99.90;;;5.35;94.13;97806.34;5201816;28;20204;-60
2021/10/29 01:54:22;;;;;;;29.03;22.97;;;4.60;99.90;;;5.32;93.72;97806.13;5200505;28;20292;-60
2021/10/29 01:56:57;;;;;;;27.67;22.63;;;4.60;99.90;;;5.19;94.44;97800.88;5195969;28;20221;-61
2021/10/29 01:59:30;;;;;;;28.13;23.03;;;4.50;99.90;;;5.22;94.08;97802.75;5202273;28;20198;-63
2021/10/29 02:02:03;;;;;;;26.90;22.20;;;4.50;99.90;;;5.16;94.37;97809.09;5204468;28;20637;-61
2021/10/29 02:04:36;;;;;;;27.43;23.23;;;4.50;99.90;;;5.12;94.32;97801.16;5203546;28;20696;-61
2021/10/29 02:07:11;;;;;;;26.73;22.33;;;4.40;99.90;;;5.19;94.13;97800.88;5202130;28;20232;-61
2021/10/29 02:09:44;;;;;;;26.00;22.50;;;4.40;99.90;;;5.10;94.26;97788.38;5204382;28;20577;-61
2021/10/29 02:12:17;;;;;;;24.47;21.13;;;4.40;99.90;;;5.16;94.02;97804.03;5206266;28;20288;-61
2021/10/29 02:14:50;;;;;;;30.07;23.13;;;4.40;99.90;;;5.12;93.96;97794.47;5206705;28;20234;-60
2021/10/29 02:17:25;;;;;;;29.37;23.70;;;4.50;99.90;;;5.19;94.31;97795.78;5220083;22;20606;-55
2021/10/29 02:19:59;;;;;;;26.07;22.30;;;4.50;99.90;;;5.18;94.21;97791.50;5227933;28;20215;-59
2021/10/29 02:22:33;;;;;;;27.37;21.97;;;4.50;99.90;;;5.19;94.04;97793.25;5222794;28;20211;-54
2021/10/29 02:25:08;;;;;;;24.37;20.97;;;4.40;99.90;;;5.11;94.26;97790.13;5228516;28;20192;-53
2021/10/29 02:27:41;;;;;;;27.93;22.90;;;4.40;99.90;;;5.10;94.52;97797.63;5223157;28;20232;-54
2021/10/29 02:30:14;;;;;;;28.13;23.73;;;4.40;99.90;;;5.13;95.02;97788.63;5228496;28;20194;-56
2021/10/29 02:32:47;;;;;;;26.43;21.90;;;4.40;99.90;;;5.13;95.55;97793.69;5234793;28;20207;-54
2021/10/29 02:35:20;;;;;;;26.83;21.73;;;4.60;99.90;;;5.15;95.16;97791.25;5229166;28;20224;-59
2021/10/29 02:37:54;;;;;;;23.97;20.37;;;4.50;99.90;;;5.24;94.63;97791.09;5221414;28;20242;-54
2021/10/29 02:40:28;;;;;;;25.87;21.63;;;4.50;99.90;;;5.22;94.30;97798.56;5231325;28;20215;-53
2021/10/29 02:43:01;;;;;;;24.93;21.50;;;4.50;99.90;;;5.19;94.08;97804.28;5225813;28;20200;-57
2021/10/29 02:45:34;;;;;;;25.77;20.40;;;4.50;99.90;;;5.28;94.09;97801.56;5230675;28;20200;-53
2021/10/29 02:48:07;;;;;;;22.83;19.37;;;4.50;99.90;;;5.26;93.63;97798.03;5232302;28;20747;-56
2021/10/29 02:50:40;;;;;;;22.60;18.87;;;4.50;99.90;;;5.23;93.07;97792.72;5228120;28;20192;-58
2021/10/29 02:53:15;;;;;;;22.97;18.60;;;4.50;99.90;;;5.19;92.73;97799.22;5224707;28;20194;-57
2021/10/29 02:55:48;;;;;;;23.93;19.90;;;4.40;99.90;;;5.14;92.45;97789.50;5231774;28;20243;-56
2021/10/29 02:58:21;;;;;;;22.50;19.67;;;4.40;99.90;;;5.11;92.43;97786.72;5223390;28;20225;-58
2021/10/29 03:00:57;;;;;;;24.60;20.87;;;4.40;99.90;;;5.07;92.10;97790.69;5226344;28;20211;-54
2021/10/29 03:03:31;;;;;;;23.53;20.30;;;4.30;99.90;;;5.04;92.25;97792.09;5223839;28;20200;-56
2021/10/29 03:06:04;;;;;;;23.13;19.27;;;4.30;99.90;;;5.03;91.85;97790.31;5226673;28;21367;-54
2021/10/29 03:08:39;;;;;;;24.93;20.77;;;4.30;99.90;;;5.05;92.64;97804.00;5223757;28;20308;-57
2021/10/29 03:11:12;;;;;;;22.90;19.60;;;4.30;99.90;;;5.04;92.56;97792.97;5226271;28;20576;-57
2021/10/29 03:13:45;;;;;;;23.63;20.47;;;4.30;99.90;;;5.07;92.87;97795.75;5227924;28;20200;-58
2021/10/29 03:16:18;;;;;;;21.23;18.60;;;4.40;99.90;;;5.01;92.83;97802.88;5231671;28;20227;-57
2021/10/29 03:18:51;;;;;;;25.00;20.30;;;4.30;99.90;;;5.00;93.09;97795.16;5226874;28;20232;-55
2021/10/29 03:21:24;;;;;;;22.70;18.87;;;4.30;99.90;;;4.96;92.82;97799.09;5222172;28;20203;-54
2021/10/29 03:23:59;;;;;;;22.50;20.10;;;4.20;99.90;;;4.95;92.68;97795.69;5225690;28;20207;-54
2021/10/29 03:26:32;;;;;;;22.70;19.70;;;4.30;99.90;;;4.90;92.72;97796.97;5225662;28;20466;-57
2021/10/29 03:29:05;;;;;;;21.40;19.17;;;4.20;99.90;;;4.91;92.78;97798.72;5226819;28;20587;-55
2021/10/29 03:31:38;;;;;;;22.53;19.83;;;4.20;99.90;;;4.92;92.76;97799.59;5226393;28;20229;-58
2021/10/29 03:34:11;;;;;;;22.60;19.93;;;4.10;99.90;;;4.88;92.35;97801.03;5227920;28;20199;-53
2021/10/29 03:36:44;;;;;;;23.33;20.57;;;4.10;99.90;;;4.87;91.90;97788.25;5228389;28;20689;-58
2021/10/29 03:39:23;;;;;;;22.50;20.10;;;4.10;99.90;;;4.90;92.59;97791.91;5224946;28;20200;-54
2021/10/29 03:41:58;;;;;;;23.43;20.80;;;4.20;99.90;;;4.90;92.52;97788.50;5225787;28;20208;-60
2021/10/29 03:44:42;;;;;;;23.13;19.87;;;4.20;99.90;;;4.87;92.39;97784.06;5225175;28;20205;-55
2021/10/29 03:47:17;;;;;;;23.13;20.00;;;4.10;99.90;;;4.86;92.66;97782.28;5231680;28;20253;-55
2021/10/29 03:49:52;;;;;;;24.93;21.07;;;4.10;99.90;;;4.88;92.46;97780.75;5227399;28;20308;-57
2021/10/29 03:52:28;;;;;;;21.10;18.80;;;4.10;99.90;;;4.86;92.41;97782.28;5230990;28;20215;-59
2021/10/29 03:55:06;;;;;;;22.63;19.77;;;4.10;99.90;;;4.84;92.52;97778.78;5224688;28;20199;-57
2021/10/29 03:57:39;;;;;;;19.23;17.13;;;4.10;99.90;;;4.81;91.25;97780.16;5224645;28;20245;-58
2021/10/29 04:00:13;;;;;;;21.73;18.87;;;3.90;99.90;;;4.81;90.36;97778.53;5224111;28;20279;-59
2021/10/29 04:02:46;;;;;;;20.97;18.23;;;3.90;99.90;;;4.73;90.24;97769.47;5219213;28;20210;-55
2021/10/29 04:05:20;;;;;;;18.57;16.63;;;3.80;99.90;;;4.67;90.33;97771.53;5231480;28;20568;-56
2021/10/29 04:07:53;;;;;;;20.30;18.30;;;3.80;99.90;;;4.61;91.02;97778.63;5220081;28;20304;-57
2021/10/29 04:10:30;;;;;;;20.70;18.37;;;3.90;99.90;;;4.58;90.82;97775.84;5222678;28;20204;-57
2021/10/29 04:13:04;;;;;;;22.30;18.63;;;3.80;99.90;;;4.55;91.11;97775.59;5226131;28;20630;-57
2021/10/29 04:15:39;;;;;;;23.27;19.90;;;3.80;99.90;;;4.50;90.65;97778.66;5223767;28;20235;-59
2021/10/29 04:18:12;;;;;;;22.90;19.17;;;3.80;99.90;;;4.54;91.29;97776.38;5219019;28;20228;-60
2021/10/29 04:20:45;;;;;;;23.17;19.70;;;3.80;99.90;;;4.48;91.44;97777.66;5220444;28;20202;-56
2021/10/29 04:23:18;;;;;;;21.50;19.20;;;3.80;99.90;;;4.48;91.22;97782.72;5221970;28;20243;-60
2021/10/29 04:25:53;;;;;;;21.63;18.67;;;3.70;99.90;;;4.46;91.16;97779.19;5228470;28;20211;-59
2021/10/29 04:28:28;;;;;;;20.37;18.27;;;3.70;99.90;;;4.46;91.35;97775.75;5222580;28;20217;-57
2021/10/29 04:31:04;;;;;;;23.20;19.20;;;3.70;99.90;;;4.45;91.79;97786.66;5214982;28;20201;-55
2021/10/29 04:33:37;;;;;;;22.37;19.43;;;3.80;99.90;;;4.46;92.11;97779.19;5218672;28;20206;-58
2021/10/29 04:36:11;;;;;;;21.70;19.37;;;3.70;99.90;;;4.37;92.39;97780.09;5220569;28;20221;-59
2021/10/29 04:38:46;;;;;;;23.27;19.30;;;3.70;99.90;;;4.42;92.42;97784.75;5219948;28;20219;-58
2021/10/29 04:41:20;;;;;;;21.13;18.40;;;3.70;99.90;;;4.45;91.48;97782.47;5224116;28;20552;-63
2021/10/29 04:43:53;;;;;;;20.30;17.17;;;3.70;99.90;;;4.40;91.42;97793.88;5221181;28;20206;-57
2021/10/29 04:46:26;;;;;;;22.27;19.77;;;3.60;99.90;;;4.39;91.27;97782.00;5219222;28;20294;-59
2021/10/29 04:48:59;;;;;;;22.83;19.40;;;3.70;99.90;;;4.35;91.50;97774.94;5224088;28;20291;-58
2021/10/29 04:51:33;;;;;;;20.70;18.50;;;3.60;99.90;;;4.33;91.02;97781.50;5220137;28;20208;-57
2021/10/29 04:54:06;;;;;;;20.73;18.37;;;3.60;99.90;;;4.30;91.07;97793.91;5221523;28;20207;-57
2021/10/29 04:56:43;;;;;;;22.80;19.70;;;3.60;99.90;;;4.34;90.91;97789.97;5222062;28;20316;-56
2021/10/29 04:59:17;;;;;;;21.87;19.47;;;3.60;99.90;;;4.32;92.16;97781.38;5217912;28;20228;-57
2021/10/29 05:01:50;;;;;;;21.93;19.27;;;3.70;99.90;;;4.33;92.00;97781.50;5220570;28;20574;-55
2021/10/29 05:04:23;;;;;;;19.53;16.63;;;3.60;99.90;;;4.32;91.96;97779.75;5219818;28;20827;-55
2021/10/29 05:06:56;;;;;;;19.70;17.60;;;3.60;99.90;;;4.32;92.08;97778.84;5221147;28;20217;-56
2021/10/29 05:09:29;;;;;;;19.83;17.73;;;3.60;99.90;;;4.34;91.89;97780.75;5221856;28;20201;-58
2021/10/29 05:12:05;;;;;;;21.77;19.00;;;3.60;99.90;;;4.38;91.71;97779.31;5221128;28;20295;-55
2021/10/29 05:14:38;;;;;;;19.10;17.10;;;3.70;99.90;;;4.39;91.55;97771.00;5225590;28;20624;-55
2021/10/29 05:17:11;;;;;;;20.40;17.57;;;3.60;99.90;;;4.34;91.36;97778.22;5211264;28;20224;-57
2021/10/29 05:19:44;;;;;;;20.97;18.67;;;3.60;99.90;;;4.34;91.48;97785.78;5216105;28;20198;-55
2021/10/29 05:22:17;;;;;;;23.87;19.03;;;3.60;99.90;;;4.35;91.42;97782.53;5221146;28;20728;-58
2021/10/29 05:24:50;;;;;;;21.77;19.47;;;3.60;99.90;;;4.35;92.03;97780.00;5213797;28;20215;-57
2021/10/29 05:27:24;;;;;;;22.03;19.60;;;3.60;99.90;;;4.28;91.69;97775.19;5226812;28;20221;-58
2021/10/29 05:29:57;;;;;;;21.03;18.83;;;3.60;99.90;;;4.27;91.91;97775.97;5221812;28;20204;-54
2021/10/29 05:32:31;;;;;;;21.13;18.83;;;3.60;99.90;;;4.26;91.71;97771.66;5221125;28;20203;-57
2021/10/29 05:35:06;;;;;;;20.63;18.47;;;3.60;99.90;;;4.22;91.76;97767.13;5214842;28;20292;-57
2021/10/29 05:37:39;;;;;;;19.27;17.27;;;3.50;99.90;;;4.15;91.58;97780.03;5221150;28;20240;-56
2021/10/29 05:40:13;;;;;;;19.90;17.80;;;3.40;99.90;;;4.12;91.28;97777.25;5222415;28;20574;-54
2021/10/29 05:42:48;;;;;;;20.93;18.63;;;3.40;99.90;;;4.16;91.34;97779.28;5225352;28;20570;-57
2021/10/29 05:45:21;;;;;;;19.40;17.40;;;3.50;99.90;;;4.18;91.15;97781.19;5225065;28;20203;-59
2021/10/29 05:47:55;;;;;;;19.33;17.10;;;3.40;99.90;;;4.09;90.37;97777.88;5228564;28;20591;-57
2021/10/29 05:50:29;;;;;;;19.63;17.50;;;3.30;99.90;;;4.02;91.30;97779.03;5223902;28;20202;-57
2021/10/29 05:53:05;;;;;;;18.70;16.80;;;3.30;99.90;;;4.01;91.04;97784.88;5219850;28;20195;-55
2021/10/29 05:55:38;;;;;;;19.93;17.83;;;3.30;99.90;;;4.01;91.14;97781.47;5225476;28;20554;-53
2021/10/29 05:58:12;;;;;;;19.33;17.33;;;3.30;99.90;;;4.00;91.34;97774.63;5220936;28;20225;-54
2021/10/29 06:00:45;;;;;;;19.13;17.13;;;3.30;99.90;;;4.03;91.42;97775.78;5225264;28;20200;-55
2021/10/29 06:03:19;;;;;;;19.80;17.00;;;3.30;99.90;;;4.12;91.37;97772.19;5221034;28;20201;-59
2021/10/29 06:05:53;;;;;;;19.57;17.60;;;3.40;99.90;;;4.01;91.62;97762.13;5225298;28;20641;-59
2021/10/29 06:08:26;;;;;;;19.80;17.83;;;3.40;99.90;;;4.03;91.64;97765.66;5220942;28;20239;-58
2021/10/29 06:10:59;;;;;;;21.03;17.13;;;3.30;99.90;;;4.00;91.35;97760.34;5223171;28;20201;-59
2021/10/29 06:13:34;;;;;;;19.93;17.83;;;3.30;99.90;;;3.98;91.60;97759.34;5225633;28;20207;-59
2021/10/29 06:16:09;;;;;;;19.33;17.27;;;3.10;99.90;;;3.97;90.97;97762.63;5219000;28;20189;-56
2021/10/29 06:18:42;;;;;;;19.73;17.63;;;3.20;99.90;;;4.04;91.16;97766.53;5225091;28;20231;-59
2021/10/29 06:21:17;;;;;;;19.00;17.03;;;3.20;99.90;;;4.06;90.80;97759.94;5226093;28;20208;-58
2021/10/29 06:23:58;;;;;;;18.40;16.50;;;3.30;99.90;;;4.06;91.08;97759.94;5225032;28;20332;-58
2021/10/29 06:26:41;;;;;;;18.83;16.83;;;3.30;99.90;;;4.11;91.46;97757.78;5223195;28;20206;-60
2021/10/29 06:29:16;;;;;;;17.93;16.10;;;3.40;99.90;;;4.19;91.26;97751.69;5222957;28;20200;-58
2021/10/29 06:31:49;;;;;;;18.70;16.80;;;3.50;99.90;;;4.29;91.23;97744.97;5223721;28;20208;-60
2021/10/29 06:34:22;;;;;;;19.20;17.17;;;3.60;99.90;;;4.32;91.97;97734.22;5225394;28;20203;-57
2021/10/29 06:36:55;;;;;;;19.53;17.53;;;3.70;99.90;;;4.43;91.58;97740.97;5225847;28;20240;-59
2021/10/29 06:39:28;;;;;;;18.60;16.67;;;3.80;99.90;;;4.55;91.57;97742.69;5221703;28;20310;-58
2021/10/29 06:42:07;;;;;;;17.57;15.90;;;3.80;99.90;;;4.77;90.18;97753.72;5222992;28;20292;-59
2021/10/29 06:44:49;;;;;;;17.30;15.67;;;4.00;99.90;;;4.92;90.34;97760.00;5224630;28;20203;-59
2021/10/29 06:59:19;;;;;;;16.73;15.13;;;4.90;99.90;;;5.86;86.82;97760.28;5226931;28;20221;-59
2021/10/29 07:01:59;;;;;;;16.23;14.77;;;5.10;99.90;;;5.92;85.06;97762.38;5218263;28;20777;-58
2021/10/29 07:04:43;;;;;;;15.83;14.27;;;5.30;99.90;;;6.15;85.96;97751.41;5214775;28;20745;-59
2021/10/29 07:41:25;;;;;;;13.47;12.17;;;6.70;99.90;;;7.45;76.86;97763.03;5216553;28;20707;-57
2021/10/29 07:44:01;;;;;;;12.80;11.80;;;6.70;99.90;;;7.59;78.08;97751.25;5215880;28;20201;-59
2021/10/29 07:46:34;;;;;;;11.93;10.90;;;6.90;99.90;;;7.71;76.21;97763.00;5216256;28;20621;-59
2021/10/29 07:49:07;;;;;;;12.50;11.40;;;7.00;99.90;;;7.56;76.27;97758.66;5212918;28;20679;-57
2021/10/29 07:51:41;;;;;;;12.03;11.00;;;6.70;99.90;;;7.73;76.35;97764.88;5215380;28;20198;-58
2021/10/29 07:54:14;;;;;;;12.40;11.30;;;6.90;99.90;;;7.69;76.55;97760.34;5216186;28;20198;-59
2021/10/29 07:56:47;;;;;;;11.03;10.13;;;6.90;99.90;;;7.78;76.76;97765.16;5215789;28;22089;-60
2021/10/29 07:59:27;;;;;;;11.37;10.37;;;7.00;99.90;;;7.84;77.28;97760.47;5215584;28;20213;-60
2021/10/29 08:02:00;;;;;;;11.83;10.83;;;7.20;99.90;;;7.96;76.75;97753.66;5214846;28;20197;-60
2021/10/29 08:04:33;;;;;;;11.80;10.90;;;7.30;99.90;;;8.11;76.01;97747.00;5216500;28;20236;-58
2021/10/29 08:07:08;;;;;;;12.00;11.00;;;7.40;99.90;;;8.26;76.08;97753.88;5216332;28;20715;-60
2021/10/29 08:09:42;;;;;;;12.47;11.37;;;7.60;99.90;;;8.56;75.45;97750.78;5223262;28;20220;-60
2021/10/29 08:12:16;;;;;;;11.83;10.73;;;7.90;99.90;;;8.64;74.33;97742.72;5218615;28;20854;-60
2021/10/29 08:14:51;;;;;;;11.63;10.63;;;7.90;99.90;;;8.67;74.57;97742.91;5216858;28;20656;-59
2021/10/29 08:17:24;;;;;;;12.20;11.10;;;8.00;99.90;;;8.63;75.92;97741.84;5214907;28;20235;-58
2021/10/29 08:19:57;;;;;;;11.60;10.60;;;8.10;99.90;;;8.75;74.16;97746.81;5214988;28;20729;-60
2021/10/29 08:22:32;;;;;;;12.00;11.00;;;8.20;99.90;;;8.88;73.89;97749.34;5215767;28;20228;-58
2021/10/29 08:25:07;;;;;;;12.00;11.00;;;8.20;99.90;;;9.12;73.77;97741.41;5215995;28;20300;-59
2021/10/29 08:27:41;;;;;;;11.97;10.87;;;8.50;99.90;;;9.22;73.09;97744.63;5214505;28;20220;-60
2021/10/29 08:30:21;;;;;;;11.50;10.40;;;8.70;99.90;;;9.44;72.13;97739.16;5214174;28;20201;-58
2021/10/29 08:32:55;;;;;;;11.40;10.40;;;8.80;99.90;;;9.62;72.18;97735.91;5214491;28;20197;-60
2021/10/29 08:35:28;;;;;;;11.23;10.33;;;9.00;99.90;;;9.60;72.06;97742.59;5214295;28;20212;-60
2021/10/29 08:38:02;;;;;;;10.17;9.37;;;9.00;99.90;;;9.59;72.04;97733.19;5218093;28;20231;-60
2021/10/29 08:40:36;;;;;;;11.10;10.20;;;8.90;99.90;;;9.60;71.81;97725.59;5218588;28;20291;-60
2021/10/29 08:43:09;;;;;;;12.27;11.17;;;9.00;99.90;;;9.85;71.37;97725.38;5216194;28;20200;-59
2021/10/29 08:45:43;;;;;;;11.57;10.57;;;9.30;99.90;;;9.85;72.99;97719.38;5215628;28;20206;-60
2021/10/29 08:48:16;;;;;;;10.93;10.03;;;9.40;99.90;;;10.13;71.81;97719.28;5214815;28;20220;-60
2021/10/29 08:50:49;;;;;;;10.53;9.63;;;9.60;99.90;;;10.44;71.93;97721.88;5219675;28;20197;-60
2021/10/29 08:53:23;;;;;;;11.00;10.10;;;9.90;99.90;;;10.43;71.81;97715.03;5214062;28;20210;-59
2021/10/29 08:56:01;;;;;;;11.80;10.80;;;9.90;99.90;;;10.72;70.91;97711.50;5214545;28;20299;-60
2021/10/29 08:58:47;;;;;;;11.45;10.55;;;10.30;99.90;;;10.93;69.91;97708.31;5215672;28;20224;-60
2021/10/29 09:01:20;;;;;;;11.05;10.18;;;10.40;99.90;;;11.04;68.70;97709.75;5215134;28;20206;-60
2021/10/29 09:04:00;;;;;;;10.85;9.95;;;10.60;99.90;;;11.00;68.45;97710.41;5213358;28;20223;-60
2021/10/29 09:06:42;;;;;;;11.55;10.45;;;10.40;99.90;;;11.19;68.66;97707.16;5214508;28;20194;-60
2021/10/29 09:09:30;;;;;;;12.35;11.32;;;10.70;99.90;;;11.37;68.79;97702.09;5214809;28;20876;-60
2021/10/29 09:32:55;;;;;;;10.38;9.48;;;11.10;99.90;;;11.73;68.60;97677.44;5212912;28;20282;-61
2021/10/29 09:35:31;;;;;;;10.77;9.98;;;11.10;99.90;;;11.77;68.06;97670.81;5214515;28;20196;-58
2021/10/29 09:38:07;;;;;;;10.38;9.48;;;11.10;99.90;;;11.73;68.83;97663.00;5214488;28;20219;-59
2021/10/29 09:40:43;;;;;;;10.38;9.57;;;11.10;99.90;;;11.80;68.83;97651.34;5214061;28;20292;-58
2021/10/29 09:43:20;;;;;;;10.73;9.82;;;11.20;99.90;;;12.11;68.70;97646.06;5213250;28;20193;-59
2021/10/29 09:45:58;;;;;;;11.05;10.18;;;11.50;99.90;;;12.33;67.84;97644.50;5213634;28;20284;-61
2021/10/29 09:48:38;;;;;;;10.05;9.15;;;11.70;99.90;;;12.27;67.43;97639.97;5215211;28;20613;-61
2021/10/29 09:51:13;;;;;;;10.00;9.07;;;11.60;99.90;;;12.37;68.06;97647.28;5214758;28;20207;-61
2021/10/29 09:53:49;;;;;;;9.95;9.15;;;11.80;99.90;;;12.62;67.38;97651.88;5215122;28;20214;-59
2021/10/29 09:56:42;;;;;;;10.25;9.35;;;12.10;99.90;;;12.64;66.96;97654.47;5214438;28;20649;-59
2021/10/29 09:59:16;;;;;;;10.30;9.40;;;12.10;99.90;;;12.70;68.76;97652.19;5212412;28;20224;-60
2021/10/29 10:01:50;;;;;;;10.90;9.93;;;12.10;99.90;;;13.01;66.99;97657.00;5213781;28;20559;-58
2021/10/29 10:04:24;;;;;;;10.82;9.93;;;12.40;99.90;;;13.07;67.69;97654.69;5214054;28;20284;-61
2021/10/29 10:06:59;;;;;;;10.45;9.65;;;12.50;99.90;;;13.06;67.38;97644.38;5213160;28;20226;-60
2021/10/29 10:09:34;;;;;;;10.48;9.57;;;12.50;99.90;;;13.16;66.39;97636.28;5218603;28;20192;-61
2021/10/29 10:12:09;;;;;;;10.27;9.38;;;12.70;99.90;;;13.25;66.09;97635.81;5214812;28;20200;-61
2021/10/29 10:14:44;;;;;;;10.60;9.40;;;12.70;99.90;;;13.52;64.91;97626.72;5213491;28;20203;-61
2021/10/29 10:17:17;;;;;;;10.30;9.27;;;12.90;99.90;;;13.64;63.60;97628.03;5212919;28;20971;-60
2021/10/29 10:19:52;;;;;;;9.85;8.98;;;13.10;99.90;;;13.51;64.23;97624.97;5219664;28;20221;-60
2021/10/29 10:22:28;;;;;;;10.45;9.40;;;13.00;99.90;;;13.79;63.56;97623.53;5221025;28;20197;-60
2021/10/29 10:25:04;;;;;;;10.70;9.80;;;13.20;99.90;;;13.57;64.13;97621.78;5222950;28;20284;-60
2021/10/29 10:30:51;;;;;;;10.13;9.32;;;13.00;99.90;;;13.78;63.95;97624.34;5223676;28;20205;-61
2021/10/29 10:42:44;;;;;;;9.77;8.95;;;13.50;99.90;;;14.15;62.25;97615.53;5221353;28;20288;-60
2021/10/29 10:45:37;;;;;;;9.40;8.70;;;13.60;99.90;;;14.27;62.28;97621.16;5222834;28;20284;-61
2021/10/29 10:48:13;;;;;;;9.63;8.82;;;13.60;99.90;;;14.36;61.38;97606.06;5222372;28;20221;-61
2021/10/29 10:50:49;;;;;;;9.45;8.65;;;13.80;99.90;;;14.47;61.47;97610.75;5226419;28;20197;-59
2021/10/29 10:53:31;;;;;;;9.45;8.23;;;13.90;99.90;;;14.58;60.30;97604.34;5220631;28;20207;-61
2021/10/29 10:56:20;;;;;;;9.02;8.32;;;14.00;99.90;;;14.81;59.25;97600.91;5224913;28;20206;-61
2021/10/29 10:59:06;;;;;;;9.45;8.75;;;14.20;99.90;;;14.87;58.84;97595.97;5216705;28;20221;-61
2021/10/29 11:05:13;;;;;;;8.98;8.18;;;14.20;99.90;;;14.72;60.40;97584.28;5226273;28;20229;-59
2021/10/29 11:10:43;;;;;;;7.60;7.00;;;14.00;99.90;;;14.92;59.06;97577.28;5224460;28;20309;-61
2021/10/29 11:13:16;;;;;;;8.68;7.88;;;14.20;99.90;;;15.06;59.10;97581.22;5221282;28;20193;-59
2021/10/29 11:16:00;;;;;;;21.58;19.40;;;14.40;99.90;;;15.16;58.71;97572.09;5223412;28;20684;-60
2021/10/29 11:18:35;;;;;;;8.32;7.63;;;14.40;99.90;;;15.14;58.44;97569.47;5221529;28;20660;-60
2021/10/29 11:21:21;;;;;;;9.00;8.10;;;14.50;99.90;;;15.18;58.42;97568.75;5223963;28;20221;-60
2021/10/29 11:23:59;;;;;;;8.45;7.65;;;14.50;99.90;;;15.21;58.75;97571.44;5225641;28;20201;-60
2021/10/29 11:26:38;;;;;;;7.88;7.18;;;14.50;99.90;;;15.33;58.01;97564.09;5219170;28;20229;-61
2021/10/29 11:29:13;;;;;;;7.63;6.93;;;14.60;99.90;;;15.30;58.42;97560.56;5225335;28;20203;-60
2021/10/29 11:31:49;;;;;;;7.53;6.93;;;14.70;99.90;;;15.39;58.43;97560.00;5228052;28;20201;-61
2021/10/29 11:34:24;;;;;;;7.95;7.25;;;14.70;99.90;;;15.56;56.65;97556.28;5231594;28;20613;-61
2021/10/29 11:36:58;;;;;;;7.95;7.25;;;14.80;99.90;;;15.52;57.08;97551.84;5222765;28;20227;-60
2021/10/29 11:39:34;;;;;;;8.20;7.40;;;14.80;99.90;;;15.57;56.70;97550.31;5232275;28;20216;-58
2021/10/29 11:42:08;;;;;;;6.93;6.43;;;14.80;99.90;;;15.70;55.36;97555.03;5223476;28;20590;-60
2021/10/29 11:44:41;;;;;;;7.22;6.63;;;14.90;99.90;;;15.77;55.70;97553.56;5226876;28;20300;-60
2021/10/29 11:47:15;;;;;;;6.88;6.38;;;14.90;99.90;;;15.85;54.17;97546.03;5222136;28;20300;-62
2021/10/29 11:49:50;;;;;;;7.38;6.68;;;15.10;99.90;;;15.65;53.64;97543.72;5225305;28;20197;-58
2021/10/29 11:52:24;;;;;;;6.90;6.30;;;14.90;99.50;;;15.58;54.51;97526.28;5227490;28;20201;-60
2021/10/29 11:55:01;;;;;;;7.43;6.80;;;14.80;99.90;;;15.66;55.34;97530.00;5222777;28;20791;-61
2021/10/29 11:57:45;;;;;;;7.32;6.65;;;14.80;99.90;;;15.62;55.32;97527.25;5235071;22;20237;-64
2021/10/29 12:00:27;;;;;;;6.47;5.97;;;14.90;99.90;;;15.67;55.20;97520.56;5221197;28;20221;-64
2021/10/29 12:06:11;;;;;;;7.28;6.68;;;14.90;99.90;;;15.77;55.73;97515.78;5216958;28;20226;-62
2021/10/29 12:08:46;;;;;;;6.95;6.25;;;14.90;99.90;;;15.86;55.27;97512.59;5202734;28;20197;-63
2021/10/29 12:11:20;;;;;;;6.25;5.72;;;14.90;99.90;;;15.82;55.46;97509.88;5198284;28;20301;-63
2021/10/29 12:13:59;;;;;;;7.75;7.05;;;15.00;99.90;;;15.81;55.71;97510.72;5201505;28;20281;-62
2021/10/29 12:16:33;;;;;;;7.45;6.75;;;15.00;99.90;;;15.88;55.79;97507.47;5202331;28;20710;-63
2021/10/29 12:19:09;;;;;;;6.78;6.10;;;15.00;99.90;;;15.87;55.90;97503.16;5195685;28;20198;-62